Angus, New Mexico
Current Conditions -  °F | °C
As of 10:55 AM on Thursday 30 Oct 2014 (Local Time) from KSRR Reporting Station
Clear Clear  
Wind Chill: 63°   Ceiling: Unl
Heat Index: 63°   Visibility: 10mi
Dew Point: 19°   Wind: 9mph
Humidity: 19%   Direction: 300°WNW
Pressure: 30.4"   Gusts: NA
Location:  33.7233°N, 105.25°W
Report Text: KSRR 301655Z AUTO 30008KT 10SM CLR 17/M07 A3040 RMK AO2
Loading
Personal Weather Stations






























Interactive Weather Map New forecast layout! Learn more

10-Day Weather Forecast

Advertisements
Track Severe Weather on mobile